<?xml version="1.0" encoding="UTF-8" standalone="no" ?>
<gpx xmlns="http://www.topografix.com/GPX/1/1" xmlns:xsi="http://www.w3.org/2001/XMLSchema-instance" xsi:schemaLocation="http://www.topografix.com/GPX/1/1 http://www.topografix.com/GPX/1/1/gpx.xsd" version="1.1" creator="VisuGPX - https://www.visugpx.com">
  <metadata>
    <name>Frene8km</name>
  </metadata>
  <trk>
    <name><![CDATA[Frene8km_1]]></name>
    <trkseg>
      <trkpt lat="48.78596" lon="-0.68227">
        <ele>283.2</ele>
        <time>2008-11-30T09:39:15Z</time>
      </trkpt>
      <trkpt lat="48.78599" lon="-0.68227">
        <ele>281.8</ele>
        <time>2008-11-30T09:39:18Z</time>
      </trkpt>
      <trkpt lat="48.78602" lon="-0.68226">
        <ele>273.2</ele>
        <time>2008-11-30T09:39:20Z</time>
      </trkpt>
      <trkpt lat="48.78607" lon="-0.68227">
        <ele>258.8</ele>
        <time>2008-11-30T09:39:24Z</time>
      </trkpt>
      <trkpt lat="48.78645" lon="-0.68217">
        <ele>199.2</ele>
        <time>2008-11-30T09:39:52Z</time>
      </trkpt>
      <trkpt lat="48.78629" lon="-0.68215">
        <ele>185.2</ele>
        <time>2008-11-30T09:40:04Z</time>
      </trkpt>
      <trkpt lat="48.7862" lon="-0.68104">
        <ele>161.2</ele>
        <time>2008-11-30T09:41:05Z</time>
      </trkpt>
      <trkpt lat="48.78556" lon="-0.67929">
        <ele>159.2</ele>
        <time>2008-11-30T09:42:56Z</time>
      </trkpt>
      <trkpt lat="48.78529" lon="-0.67824">
        <ele>156.4</ele>
        <time>2008-11-30T09:44:03Z</time>
      </trkpt>
      <trkpt lat="48.78479" lon="-0.67729">
        <ele>152.6</ele>
        <time>2008-11-30T09:45:11Z</time>
      </trkpt>
      <trkpt lat="48.78451" lon="-0.67582">
        <ele>153.4</ele>
        <time>2008-11-30T09:46:58Z</time>
      </trkpt>
      <trkpt lat="48.78441" lon="-0.67587">
        <ele>155</ele>
        <time>2008-11-30T09:47:17Z</time>
      </trkpt>
      <trkpt lat="48.78441" lon="-0.67567">
        <ele>156.4</ele>
        <time>2008-11-30T09:47:44Z</time>
      </trkpt>
      <trkpt lat="48.78369" lon="-0.67389">
        <ele>171.8</ele>
        <time>2008-11-30T09:50:13Z</time>
      </trkpt>
      <trkpt lat="48.78367" lon="-0.67354">
        <ele>173.2</ele>
        <time>2008-11-30T09:51:32Z</time>
      </trkpt>
      <trkpt lat="48.78365" lon="-0.67358">
        <ele>178.4</ele>
        <time>2008-11-30T09:52:05Z</time>
      </trkpt>
      <trkpt lat="48.78269" lon="-0.67359">
        <ele>178</ele>
        <time>2008-11-30T09:57:48Z</time>
      </trkpt>
      <trkpt lat="48.7815" lon="-0.67324">
        <ele>191</ele>
        <time>2008-11-30T10:00:03Z</time>
      </trkpt>
      <trkpt lat="48.77972" lon="-0.67328">
        <ele>199.6</ele>
        <time>2008-11-30T10:03:00Z</time>
      </trkpt>
      <trkpt lat="48.77913" lon="-0.67359">
        <ele>202.4</ele>
        <time>2008-11-30T10:04:02Z</time>
      </trkpt>
      <trkpt lat="48.77779" lon="-0.67441">
        <ele>202</ele>
        <time>2008-11-30T10:06:37Z</time>
      </trkpt>
      <trkpt lat="48.77485" lon="-0.67676">
        <ele>207.8</ele>
        <time>2008-11-30T10:11:59Z</time>
      </trkpt>
      <trkpt lat="48.77377" lon="-0.67724">
        <ele>211.2</ele>
        <time>2008-11-30T10:13:39Z</time>
      </trkpt>
      <trkpt lat="48.77223" lon="-0.67739">
        <ele>215.4</ele>
        <time>2008-11-30T10:16:52Z</time>
      </trkpt>
      <trkpt lat="48.77179" lon="-0.67673">
        <ele>219.8</ele>
        <time>2008-11-30T10:17:58Z</time>
      </trkpt>
      <trkpt lat="48.77144" lon="-0.67649">
        <ele>226.6</ele>
        <time>2008-11-30T10:18:49Z</time>
      </trkpt>
      <trkpt lat="48.77061" lon="-0.67703">
        <ele>241.4</ele>
        <time>2008-11-30T10:20:48Z</time>
      </trkpt>
      <trkpt lat="48.77007" lon="-0.67707">
        <ele>247.2</ele>
        <time>2008-11-30T10:21:50Z</time>
      </trkpt>
      <trkpt lat="48.7687" lon="-0.6772">
        <ele>255.4</ele>
        <time>2008-11-30T10:24:35Z</time>
      </trkpt>
      <trkpt lat="48.76664" lon="-0.67734">
        <ele>260.6</ele>
        <time>2008-11-30T10:29:21Z</time>
      </trkpt>
      <trkpt lat="48.7661" lon="-0.67789">
        <ele>265</ele>
        <time>2008-11-30T10:30:23Z</time>
      </trkpt>
      <trkpt lat="48.76585" lon="-0.67848">
        <ele>270.2</ele>
        <time>2008-11-30T10:31:50Z</time>
      </trkpt>
      <trkpt lat="48.76586" lon="-0.67941">
        <ele>271.8</ele>
        <time>2008-11-30T10:33:19Z</time>
      </trkpt>
      <trkpt lat="48.76597" lon="-0.67989">
        <ele>269.8</ele>
        <time>2008-11-30T10:33:56Z</time>
      </trkpt>
      <trkpt lat="48.76592" lon="-0.67937">
        <ele>271.2</ele>
        <time>2008-11-30T10:35:01Z</time>
      </trkpt>
      <trkpt lat="48.76586" lon="-0.67853">
        <ele>268.8</ele>
        <time>2008-11-30T10:35:59Z</time>
      </trkpt>
      <trkpt lat="48.76366" lon="-0.67788">
        <ele>271.8</ele>
        <time>2008-11-30T10:40:12Z</time>
      </trkpt>
      <trkpt lat="48.76192" lon="-0.67696">
        <ele>267</ele>
        <time>2008-11-30T10:43:54Z</time>
      </trkpt>
      <trkpt lat="48.76105" lon="-0.67696">
        <ele>261.2</ele>
        <time>2008-11-30T10:45:20Z</time>
      </trkpt>
      <trkpt lat="48.76085" lon="-0.67718">
        <ele>261.2</ele>
        <time>2008-11-30T10:45:46Z</time>
      </trkpt>
      <trkpt lat="48.7611" lon="-0.67827">
        <ele>269.8</ele>
        <time>2008-11-30T10:47:26Z</time>
      </trkpt>
      <trkpt lat="48.76138" lon="-0.67898">
        <ele>273.2</ele>
        <time>2008-11-30T10:48:22Z</time>
      </trkpt>
      <trkpt lat="48.76152" lon="-0.67959">
        <ele>272.2</ele>
        <time>2008-11-30T10:49:23Z</time>
      </trkpt>
      <trkpt lat="48.76162" lon="-0.6815">
        <ele>268.4</ele>
        <time>2008-11-30T10:51:26Z</time>
      </trkpt>
      <trkpt lat="48.76223" lon="-0.68201">
        <ele>269.4</ele>
        <time>2008-11-30T10:52:56Z</time>
      </trkpt>
      <trkpt lat="48.76228" lon="-0.68247">
        <ele>269.8</ele>
        <time>2008-11-30T10:53:26Z</time>
      </trkpt>
      <trkpt lat="48.76252" lon="-0.68261">
        <ele>271.2</ele>
        <time>2008-11-30T10:53:50Z</time>
      </trkpt>
      <trkpt lat="48.76255" lon="-0.68275">
        <ele>273.2</ele>
        <time>2008-11-30T10:54:07Z</time>
      </trkpt>
      <trkpt lat="48.76269" lon="-0.68367">
        <ele>272.6</ele>
        <time>2008-11-30T10:56:50Z</time>
      </trkpt>
      <trkpt lat="48.76264" lon="-0.68379">
        <ele>272.2</ele>
        <time>2008-11-30T10:57:01Z</time>
      </trkpt>
      <trkpt lat="48.76393" lon="-0.68412">
        <ele>269.8</ele>
        <time>2008-11-30T10:58:57Z</time>
      </trkpt>
      <trkpt lat="48.76413" lon="-0.68455">
        <ele>270.8</ele>
        <time>2008-11-30T10:59:35Z</time>
      </trkpt>
      <trkpt lat="48.76446" lon="-0.68459">
        <ele>270.8</ele>
        <time>2008-11-30T11:00:04Z</time>
      </trkpt>
      <trkpt lat="48.76518" lon="-0.68465">
        <ele>268.8</ele>
        <time>2008-11-30T11:01:10Z</time>
      </trkpt>
      <trkpt lat="48.76767" lon="-0.68569">
        <ele>247.6</ele>
        <time>2008-11-30T11:05:06Z</time>
      </trkpt>
      <trkpt lat="48.76798" lon="-0.68592">
        <ele>244.8</ele>
        <time>2008-11-30T11:05:37Z</time>
      </trkpt>
      <trkpt lat="48.76863" lon="-0.68683">
        <ele>227.4</ele>
        <time>2008-11-30T11:07:27Z</time>
      </trkpt>
      <trkpt lat="48.76909" lon="-0.68714">
        <ele>223.2</ele>
        <time>2008-11-30T11:09:14Z</time>
      </trkpt>
      <trkpt lat="48.7697" lon="-0.68757">
        <ele>212.2</ele>
        <time>2008-11-30T11:12:43Z</time>
      </trkpt>
      <trkpt lat="48.76989" lon="-0.68814">
        <ele>208.8</ele>
        <time>2008-11-30T11:14:23Z</time>
      </trkpt>
      <trkpt lat="48.76927" lon="-0.68928">
        <ele>207.4</ele>
        <time>2008-11-30T11:16:56Z</time>
      </trkpt>
      <trkpt lat="48.76929" lon="-0.68942">
        <ele>207.4</ele>
        <time>2008-11-30T11:17:20Z</time>
      </trkpt>
      <trkpt lat="48.76941" lon="-0.68952">
        <ele>205.8</ele>
        <time>2008-11-30T11:18:37Z</time>
      </trkpt>
      <trkpt lat="48.77114" lon="-0.69056">
        <ele>198.2</ele>
        <time>2008-11-30T11:22:45Z</time>
      </trkpt>
      <trkpt lat="48.77274" lon="-0.68999">
        <ele>208.2</ele>
        <time>2008-11-30T11:27:22Z</time>
      </trkpt>
      <trkpt lat="48.77328" lon="-0.69068">
        <ele>211.6</ele>
        <time>2008-11-30T11:28:32Z</time>
      </trkpt>
      <trkpt lat="48.77343" lon="-0.69121">
        <ele>213</ele>
        <time>2008-11-30T11:29:06Z</time>
      </trkpt>
      <trkpt lat="48.77374" lon="-0.69267">
        <ele>210.6</ele>
        <time>2008-11-30T11:30:45Z</time>
      </trkpt>
      <trkpt lat="48.77382" lon="-0.69283">
        <ele>209.2</ele>
        <time>2008-11-30T11:30:59Z</time>
      </trkpt>
      <trkpt lat="48.77469" lon="-0.69212">
        <ele>210.6</ele>
        <time>2008-11-30T11:32:41Z</time>
      </trkpt>
      <trkpt lat="48.77574" lon="-0.69122">
        <ele>203</ele>
        <time>2008-11-30T11:34:57Z</time>
      </trkpt>
      <trkpt lat="48.77731" lon="-0.68894">
        <ele>194.4</ele>
        <time>2008-11-30T11:38:55Z</time>
      </trkpt>
      <trkpt lat="48.77822" lon="-0.68816">
        <ele>188.6</ele>
        <time>2008-11-30T11:40:42Z</time>
      </trkpt>
      <trkpt lat="48.78434" lon="-0.68506">
        <ele>156.8</ele>
        <time>2008-11-30T11:52:26Z</time>
      </trkpt>
      <trkpt lat="48.78564" lon="-0.68404">
        <ele>157.4</ele>
        <time>2008-11-30T11:54:52Z</time>
      </trkpt>
      <trkpt lat="48.78578" lon="-0.68387">
        <ele>157.4</ele>
        <time>2008-11-30T11:55:21Z</time>
      </trkpt>
      <trkpt lat="48.78572" lon="-0.6837">
        <ele>158.2</ele>
        <time>2008-11-30T11:55:44Z</time>
      </trkpt>
      <trkpt lat="48.78567" lon="-0.68344">
        <ele>158.8</ele>
        <time>2008-11-30T11:56:00Z</time>
      </trkpt>
      <trkpt lat="48.78549" lon="-0.6826">
        <ele>160.2</ele>
        <time>2008-11-30T11:56:53Z</time>
      </trkpt>
      <trkpt lat="48.78544" lon="-0.68231">
        <ele>159.8</ele>
        <time>2008-11-30T11:57:12Z</time>
      </trkpt>
      <trkpt lat="48.78521" lon="-0.68202">
        <ele>160.6</ele>
        <time>2008-11-30T11:57:42Z</time>
      </trkpt>
      <trkpt lat="48.78497" lon="-0.68208">
        <ele>166.4</ele>
        <time>2008-11-30T11:58:01Z</time>
      </trkpt>
      <trkpt lat="48.7849" lon="-0.68203">
        <ele>160.6</ele>
        <time>2008-11-30T11:58:29Z</time>
      </trkpt>
    </trkseg>
  </trk>
</gpx>